sensor_id;sensor_type;location;lat;lon;timestamp;P1;durP1;ratioP1;P2;durP2;ratioP2
57903;SDS011;43720;47.462;19.030;2022-09-27T03:51:05;3.75;;;1.65;;
57903;SDS011;43720;47.462;19.030;2022-09-27T03:54:07;3.70;;;2.20;;
57903;SDS011;43720;47.462;19.030;2022-09-27T03:57:10;2.72;;;2.20;;
57903;SDS011;43720;47.462;19.030;2022-09-27T04:00:13;2.62;;;1.80;;
57903;SDS011;43720;47.462;19.030;2022-09-27T04:03:17;3.80;;;2.22;;
57903;SDS011;43720;47.462;19.030;2022-09-27T04:06:23;5.87;;;2.92;;
57903;SDS011;43720;47.462;19.030;2022-09-27T04:09:26;3.45;;;2.33;;
57903;SDS011;43720;47.462;19.030;2022-09-27T04:12:29;3.33;;;2.85;;
57903;SDS011;43720;47.462;19.030;2022-09-27T04:15:31;5.10;;;2.78;;
57903;SDS011;43720;47.462;19.030;2022-09-27T04:18:36;6.30;;;3.33;;
57903;SDS011;43720;47.462;19.030;2022-09-27T04:21:40;3.58;;;2.92;;
57903;SDS011;43720;47.462;19.030;2022-09-27T04:24:43;2.58;;;2.17;;
57903;SDS011;43720;47.462;19.030;2022-09-27T04:27:45;8.25;;;2.92;;
57903;SDS011;43720;47.462;19.030;2022-09-27T04:30:49;3.42;;;1.98;;
57903;SDS011;43720;47.462;19.030;2022-09-27T04:33:54;4.03;;;3.12;;
57903;SDS011;43720;47.462;19.030;2022-09-27T04:36:56;2.22;;;1.80;;
57903;SDS011;43720;47.462;19.030;2022-09-27T04:39:59;5.57;;;2.80;;
57903;SDS011;43720;47.462;19.030;2022-09-27T04:43:03;2.92;;;1.73;;
57903;SDS011;43720;47.462;19.030;2022-09-27T04:46:05;3.55;;;2.62;;
57903;SDS011;43720;47.462;19.030;2022-09-27T04:49:08;4.87;;;2.62;;
57903;SDS011;43720;47.462;19.030;2022-09-27T04:52:10;3.15;;;2.90;;
57903;SDS011;43720;47.462;19.030;2022-09-27T04:55:12;2.53;;;2.05;;
57903;SDS011;43720;47.462;19.030;2022-09-27T04:58:14;6.95;;;3.03;;
57903;SDS011;43720;47.462;19.030;2022-09-27T05:01:17;5.62;;;2.75;;
57903;SDS011;43720;47.462;19.030;2022-09-27T05:04:20;5.85;;;3.53;;
57903;SDS011;43720;47.462;19.030;2022-09-27T05:07:22;19.08;;;4.37;;
57903;SDS011;43720;47.462;19.030;2022-09-27T05:10:25;5.70;;;3.33;;
57903;SDS011;43720;47.462;19.030;2022-09-27T05:13:27;6.20;;;4.20;;
57903;SDS011;43720;47.462;19.030;2022-09-27T05:16:29;8.70;;;4.70;;
57903;SDS011;43720;47.462;19.030;2022-09-27T05:19:38;7.68;;;4.40;;
57903;SDS011;43720;47.462;19.030;2022-09-27T05:22:41;12.00;;;5.93;;
57903;SDS011;43720;47.462;19.030;2022-09-27T05:25:44;8.20;;;5.60;;
57903;SDS011;43720;47.462;19.030;2022-09-27T05:28:46;9.43;;;5.95;;
57903;SDS011;43720;47.462;19.030;2022-09-27T05:31:49;11.90;;;7.50;;
57903;SDS011;43720;47.462;19.030;2022-09-27T05:34:51;13.35;;;7.22;;
57903;SDS011;43720;47.462;19.030;2022-09-27T05:37:56;17.33;;;5.55;;
57903;SDS011;43720;47.462;19.030;2022-09-27T05:41:00;8.13;;;5.28;;
57903;SDS011;43720;47.462;19.030;2022-09-27T05:44:02;14.50;;;7.10;;
57903;SDS011;43720;47.462;19.030;2022-09-27T05:47:04;14.45;;;6.25;;
57903;SDS011;43720;47.462;19.030;2022-09-27T05:50:08;7.60;;;4.62;;
57903;SDS011;43720;47.462;19.030;2022-09-27T05:53:10;9.65;;;5.10;;
57903;SDS011;43720;47.462;19.030;2022-09-27T05:56:14;9.38;;;5.20;;
57903;SDS011;43720;47.462;19.030;2022-09-27T05:59:19;9.75;;;3.47;;
57903;SDS011;43720;47.462;19.030;2022-09-27T06:02:24;8.13;;;5.47;;
57903;SDS011;43720;47.462;19.030;2022-09-27T06:05:34;10.70;;;7.22;;
57903;SDS011;43720;47.462;19.030;2022-09-27T06:08:39;13.20;;;5.57;;
57903;SDS011;43720;47.462;19.030;2022-09-27T06:11:43;14.60;;;5.60;;
57903;SDS011;43720;47.462;19.030;2022-09-27T06:14:47;16.60;;;6.45;;
57903;SDS011;43720;47.462;19.030;2022-09-27T06:17:49;8.50;;;6.75;;
57903;SDS011;43720;47.462;19.030;2022-09-27T06:20:52;11.75;;;5.37;;
57903;SDS011;43720;47.462;19.030;2022-09-27T06:23:54;9.70;;;6.03;;
57903;SDS011;43720;47.462;19.030;2022-09-27T06:26:57;12.25;;;6.72;;
57903;SDS011;43720;47.462;19.030;2022-09-27T06:30:00;14.10;;;6.05;;
57903;SDS011;43720;47.462;19.030;2022-09-27T06:33:03;9.45;;;4.97;;
57903;SDS011;43720;47.462;19.030;2022-09-27T06:36:06;8.73;;;4.80;;
57903;SDS011;43720;47.462;19.030;2022-09-27T06:39:09;11.48;;;5.60;;
57903;SDS011;43720;47.462;19.030;2022-09-27T06:42:12;8.68;;;4.93;;
57903;SDS011;43720;47.462;19.030;2022-09-27T06:45:24;8.88;;;5.62;;
57903;SDS011;43720;47.462;19.030;2022-09-27T06:48:32;10.90;;;6.47;;
57903;SDS011;43720;47.462;19.030;2022-09-27T06:51:38;8.75;;;6.78;;
57903;SDS011;43720;47.462;19.030;2022-09-27T06:54:40;10.45;;;5.95;;
57903;SDS011;43720;47.462;19.030;2022-09-27T06:57:42;9.27;;;5.87;;
57903;SDS011;43720;47.462;19.030;2022-09-27T07:01:03;8.65;;;4.40;;
57903;SDS011;43720;47.462;19.030;2022-09-27T07:04:10;11.60;;;6.32;;
57903;SDS011;43720;47.462;19.030;2022-09-27T07:07:14;10.48;;;4.65;;
57903;SDS011;43720;47.462;19.030;2022-09-27T07:10:17;9.05;;;6.12;;
57903;SDS011;43720;47.462;19.030;2022-09-27T07:13:20;6.70;;;4.50;;
57903;SDS011;43720;47.462;19.030;2022-09-27T07:16:23;12.85;;;5.82;;
57903;SDS011;43720;47.462;19.030;2022-09-27T07:19:25;10.10;;;3.92;;
57903;SDS011;43720;47.462;19.030;2022-09-27T07:22:27;10.75;;;5.65;;
57903;SDS011;43720;47.462;19.030;2022-09-27T07:25:32;6.30;;;4.82;;
57903;SDS011;43720;47.462;19.030;2022-09-27T07:28:35;9.82;;;4.57;;
57903;SDS011;43720;47.462;19.030;2022-09-27T07:31:38;8.63;;;6.28;;
57903;SDS011;43720;47.462;19.030;2022-09-27T07:34:40;9.82;;;5.70;;
57903;SDS011;43720;47.462;19.030;2022-09-27T07:37:42;7.03;;;5.18;;
57903;SDS011;43720;47.462;19.030;2022-09-27T07:40:45;10.82;;;6.22;;
57903;SDS011;43720;47.462;19.030;2022-09-27T07:43:47;8.98;;;5.60;;
57903;SDS011;43720;47.462;19.030;2022-09-27T07:46:49;6.78;;;4.12;;
57903;SDS011;43720;47.462;19.030;2022-09-27T07:49:52;10.20;;;4.47;;
57903;SDS011;43720;47.462;19.030;2022-09-27T07:52:54;7.62;;;3.30;;
57903;SDS011;43720;47.462;19.030;2022-09-27T07:55:59;8.52;;;4.35;;
57903;SDS011;43720;47.462;19.030;2022-09-27T07:59:02;5.82;;;4.30;;
57903;SDS011;43720;47.462;19.030;2022-09-27T08:02:04;9.88;;;5.22;;
57903;SDS011;43720;47.462;19.030;2022-09-27T08:05:07;4.47;;;3.67;;
57903;SDS011;43720;47.462;19.030;2022-09-27T08:08:12;7.37;;;3.42;;
57903;SDS011;43720;47.462;19.030;2022-09-27T08:11:16;7.72;;;4.47;;
57903;SDS011;43720;47.462;19.030;2022-09-27T08:14:19;6.65;;;4.12;;
57903;SDS011;43720;47.462;19.030;2022-09-27T08:17:24;7.60;;;4.03;;
57903;SDS011;43720;47.462;19.030;2022-09-27T08:20:29;8.23;;;4.15;;
57903;SDS011;43720;47.462;19.030;2022-09-27T08:23:31;7.12;;;3.90;;
57903;SDS011;43720;47.462;19.030;2022-09-27T08:26:38;9.60;;;5.30;;
57903;SDS011;43720;47.462;19.030;2022-09-27T08:29:40;8.40;;;4.32;;
57903;SDS011;43720;47.462;19.030;2022-09-27T08:32:43;5.95;;;3.87;;
57903;SDS011;43720;47.462;19.030;2022-09-27T08:35:45;11.15;;;4.65;;
57903;SDS011;43720;47.462;19.030;2022-09-27T08:38:48;8.90;;;5.03;;
57903;SDS011;43720;47.462;19.030;2022-09-27T08:42:09;14.70;;;5.65;;
57903;SDS011;43720;47.462;19.030;2022-09-27T08:45:28;20.25;;;4.82;;
57903;SDS011;43720;47.462;19.030;2022-09-27T08:48:34;5.80;;;3.97;;
57903;SDS011;43720;47.462;19.030;2022-09-27T08:51:39;6.35;;;3.30;;
57903;SDS011;43720;47.462;19.030;2022-09-27T08:54:43;4.90;;;3.28;;
57903;SDS011;43720;47.462;19.030;2022-09-27T08:57:52;7.37;;;3.10;;
57903;SDS011;43720;47.462;19.030;2022-09-27T09:00:59;5.72;;;3.50;;
57903;SDS011;43720;47.462;19.030;2022-09-27T09:04:05;6.78;;;4.43;;
57903;SDS011;43720;47.462;19.030;2022-09-27T09:07:15;5.25;;;3.10;;
57903;SDS011;43720;47.462;19.030;2022-09-27T09:27:12;7.90;;;4.95;;
57903;SDS011;43720;47.462;19.030;2022-09-27T09:30:39;6.57;;;4.37;;
57903;SDS011;43720;47.462;19.030;2022-09-27T09:34:11;3.53;;;3.08;;
57903;SDS011;43720;47.462;19.030;2022-09-27T09:37:41;5.82;;;4.10;;
57903;SDS011;43720;47.462;19.030;2022-09-27T09:41:33;4.53;;;3.62;;
57903;SDS011;43720;47.462;19.030;2022-09-27T09:44:25;4.25;;;3.30;;
57903;SDS011;43720;47.462;19.030;2022-09-27T09:47:35;6.72;;;4.22;;
57903;SDS011;43720;47.462;19.030;2022-09-27T09:50:43;12.25;;;4.75;;
57903;SDS011;43720;47.462;19.030;2022-09-27T09:53:56;6.68;;;4.18;;
57903;SDS011;43720;47.462;19.030;2022-09-27T09:57:05;5.07;;;3.40;;
57903;SDS011;43720;47.462;19.030;2022-09-27T10:00:13;7.37;;;4.45;;
57903;SDS011;43720;47.462;19.030;2022-09-27T10:03:18;7.85;;;5.53;;
57903;SDS011;43720;47.462;19.030;2022-09-27T10:06:20;7.53;;;3.67;;
57903;SDS011;43720;47.462;19.030;2022-09-27T10:09:25;7.22;;;4.43;;
57903;SDS011;43720;47.462;19.030;2022-09-27T10:12:31;10.20;;;5.93;;
57903;SDS011;43720;47.462;19.030;2022-09-27T10:15:33;7.62;;;3.67;;
57903;SDS011;43720;47.462;19.030;2022-09-27T10:18:36;8.82;;;4.20;;
57903;SDS011;43720;47.462;19.030;2022-09-27T10:21:41;7.18;;;3.67;;
57903;SDS011;43720;47.462;19.030;2022-09-27T10:24:58;6.22;;;4.30;;
57903;SDS011;43720;47.462;19.030;2022-09-27T10:28:05;7.15;;;4.50;;
57903;SDS011;43720;47.462;19.030;2022-09-27T10:31:10;6.68;;;4.28;;
57903;SDS011;43720;47.462;19.030;2022-09-27T10:34:36;7.47;;;5.20;;
57903;SDS011;43720;47.462;19.030;2022-09-27T10:37:42;8.95;;;4.37;;
57903;SDS011;43720;47.462;19.030;2022-09-27T10:40:48;7.00;;;4.45;;
57903;SDS011;43720;47.462;19.030;2022-09-27T10:43:54;5.53;;;3.95;;
57903;SDS011;43720;47.462;19.030;2022-09-27T10:46:58;8.90;;;5.15;;
57903;SDS011;43720;47.462;19.030;2022-09-27T10:50:10;4.93;;;3.25;;
57903;SDS011;43720;47.462;19.030;2022-09-27T10:53:43;10.55;;;5.75;;
57903;SDS011;43720;47.462;19.030;2022-09-27T11:00:25;13.93;;;5.80;;
57903;SDS011;43720;47.462;19.030;2022-09-27T11:03:34;5.43;;;4.12;;
57903;SDS011;43720;47.462;19.030;2022-09-27T11:06:41;5.03;;;3.25;;
57903;SDS011;43720;47.462;19.030;2022-09-27T11:09:48;4.30;;;3.50;;
57903;SDS011;43720;47.462;19.030;2022-09-27T11:13:14;6.70;;;3.80;;
57903;SDS011;43720;47.462;19.030;2022-09-27T11:16:28;4.87;;;3.25;;
57903;SDS011;43720;47.462;19.030;2022-09-27T11:42:47;10.95;;;3.20;;
57903;SDS011;43720;47.462;19.030;2022-09-27T11:53:26;5.67;;;3.77;;
57903;SDS011;43720;47.462;19.030;2022-09-27T12:03:33;14.82;;;3.65;;
57903;SDS011;43720;47.462;19.030;2022-09-27T12:10:11;5.15;;;3.05;;
57903;SDS011;43720;47.462;19.030;2022-09-27T12:13:26;5.87;;;3.03;;
57903;SDS011;43720;47.462;19.030;2022-09-27T12:16:54;5.50;;;2.90;;
57903;SDS011;43720;47.462;19.030;2022-09-27T12:19:59;6.05;;;3.62;;
57903;SDS011;43720;47.462;19.030;2022-09-27T12:23:10;4.95;;;3.30;;
57903;SDS011;43720;47.462;19.030;2022-09-27T12:26:22;9.60;;;3.25;;
57903;SDS011;43720;47.462;19.030;2022-09-27T12:29:32;5.20;;;3.35;;
57903;SDS011;43720;47.462;19.030;2022-09-27T12:32:55;5.00;;;3.35;;
57903;SDS011;43720;47.462;19.030;2022-09-27T12:36:09;7.03;;;4.43;;
57903;SDS011;43720;47.462;19.030;2022-09-27T12:39:24;7.90;;;3.53;;
57903;SDS011;43720;47.462;19.030;2022-09-27T12:42:35;5.57;;;3.72;;
57903;SDS011;43720;47.462;19.030;2022-09-27T12:53:04;8.45;;;3.75;;
57903;SDS011;43720;47.462;19.030;2022-09-27T13:09:55;4.47;;;3.17;;
57903;SDS011;43720;47.462;19.030;2022-09-27T13:12:59;4.43;;;3.35;;
57903;SDS011;43720;47.462;19.030;2022-09-27T13:16:02;2.58;;;2.15;;
57903;SDS011;43720;47.462;19.030;2022-09-27T13:19:12;4.18;;;2.25;;
57903;SDS011;43720;47.462;19.030;2022-09-27T13:22:36;3.85;;;2.22;;
57903;SDS011;43720;47.462;19.030;2022-09-27T13:25:50;3.33;;;2.55;;
57903;SDS011;43720;47.462;19.030;2022-09-27T13:32:10;3.30;;;2.12;;
57903;SDS011;43720;47.462;19.030;2022-09-27T13:35:24;3.37;;;1.50;;
57903;SDS011;43720;47.462;19.030;2022-09-27T13:38:29;4.10;;;2.58;;
57903;SDS011;43720;47.462;19.030;2022-09-27T13:44:53;3.78;;;1.90;;
57903;SDS011;43720;47.462;19.030;2022-09-27T13:48:12;3.60;;;2.17;;
57903;SDS011;43720;47.462;19.030;2022-09-27T13:52:03;3.20;;;2.10;;
57903;SDS011;43720;47.462;19.030;2022-09-27T14:01:30;2.05;;;1.60;;
57903;SDS011;43720;47.462;19.030;2022-09-27T14:04:39;2.40;;;1.12;;
57903;SDS011;43720;47.462;19.030;2022-09-27T14:07:45;3.78;;;2.05;;
57903;SDS011;43720;47.462;19.030;2022-09-27T14:10:51;2.33;;;1.90;;
57903;SDS011;43720;47.462;19.030;2022-09-27T14:13:55;1.48;;;0.93;;
57903;SDS011;43720;47.462;19.030;2022-09-27T14:16:59;3.75;;;1.40;;
57903;SDS011;43720;47.462;19.030;2022-09-27T14:20:01;1.90;;;0.88;;
57903;SDS011;43720;47.462;19.030;2022-09-27T14:23:05;0.43;;;0.35;;
57903;SDS011;43720;47.462;19.030;2022-09-27T14:26:21;1.75;;;0.70;;
57903;SDS011;43720;47.462;19.030;2022-09-27T14:29:29;0.20;;;0.20;;
57903;SDS011;43720;47.462;19.030;2022-09-27T14:32:33;0.10;;;0.10;;
57903;SDS011;43720;47.462;19.030;2022-09-27T14:35:47;0.03;;;0.03;;
57903;SDS011;43720;47.462;19.030;2022-09-27T14:42:28;1.20;;;0.62;;
57903;SDS011;43720;47.462;19.030;2022-09-27T14:45:37;0.10;;;0.10;;
57903;SDS011;43720;47.462;19.030;2022-09-27T14:48:41;0.17;;;0.10;;
57903;SDS011;43720;47.462;19.030;2022-09-27T14:51:49;0.20;;;0.20;;
57903;SDS011;43720;47.462;19.030;2022-09-27T14:54:54;1.17;;;0.32;;
57903;SDS011;43720;47.462;19.030;2022-09-27T14:57:58;0.20;;;0.20;;
57903;SDS011;43720;47.462;19.030;2022-09-27T15:01:03;0.20;;;0.20;;
57903;SDS011;43720;47.462;19.030;2022-09-27T15:04:07;0.10;;;0.10;;
57903;SDS011;43720;47.462;19.030;2022-09-27T15:07:14;1.45;;;0.95;;
57903;SDS011;43720;47.462;19.030;2022-09-27T15:10:18;0.00;;;0.00;;
57903;SDS011;43720;47.462;19.030;2022-09-27T15:13:23;0.77;;;0.40;;
57903;SDS011;43720;47.462;19.030;2022-09-27T15:16:27;0.25;;;0.20;;
57903;SDS011;43720;47.462;19.030;2022-09-27T15:19:32;0.52;;;0.37;;
57903;SDS011;43720;47.462;19.030;2022-09-27T15:22:39;0.35;;;0.30;;
57903;SDS011;43720;47.462;19.030;2022-09-27T15:26:07;0.35;;;0.22;;
57903;SDS011;43720;47.462;19.030;2022-09-27T15:29:20;0.10;;;0.10;;
57903;SDS011;43720;47.462;19.030;2022-09-27T15:32:26;0.10;;;0.10;;
57903;SDS011;43720;47.462;19.030;2022-09-27T15:35:30;0.10;;;0.10;;
57903;SDS011;43720;47.462;19.030;2022-09-27T15:38:36;0.17;;;0.08;;
